createdAt,value
2017-04-12T00:00:54.950Z,24.5
2017-04-12T00:01:56.141Z,24.5
2017-04-12T00:02:55.022Z,24.5
2017-04-12T00:03:56.129Z,24.5
2017-04-12T00:04:55.156Z,24.5
2017-04-12T00:05:56.184Z,24.5
2017-04-12T00:06:55.208Z,24.5
2017-04-12T00:07:55.267Z,24.5
2017-04-12T00:08:55.251Z,24.5
2017-04-12T00:09:56.436Z,24.5
2017-04-12T00:10:56.533Z,24.5
2017-04-12T00:11:55.593Z,24.5
2017-04-12T00:12:55.600Z,24.5
2017-04-12T00:13:56.656Z,24.5
2017-04-12T00:14:56.738Z,24.5
2017-04-12T00:15:55.671Z,24.5
2017-04-12T00:16:55.783Z,24.5
2017-04-12T00:17:55.731Z,24.5
2017-04-12T00:18:55.884Z,24.5
2017-04-12T00:19:55.873Z,24.5
2017-04-12T00:20:57.058Z,24.5
2017-04-12T00:21:55.970Z,24.5
2017-04-12T00:22:56.007Z,24.5
2017-04-12T00:23:56.107Z,24.5
2017-04-12T00:24:56.261Z,24.5
2017-04-12T00:25:56.238Z,24.5
2017-04-12T00:26:57.449Z,24.5
2017-04-12T00:27:57.414Z,24.5
2017-04-12T00:28:57.516Z,24.5
2017-04-12T00:29:57.503Z,24.5
2017-04-12T00:30:56.509Z,24.5
2017-04-12T00:31:57.647Z,24.5
2017-04-12T00:32:57.742Z,24.5
2017-04-12T00:33:57.818Z,24.5
2017-04-12T00:34:56.752Z,24.5
2017-04-12T00:35:57.712Z,24.5
2017-04-12T00:36:56.703Z,24.5
2017-04-12T00:37:58.701Z,24.5
2017-04-12T00:38:56.977Z,24.5
2017-04-12T00:39:58.057Z,24.5
2017-04-12T00:40:58.070Z,24.5
2017-04-12T00:41:58.127Z,24.5
2017-04-12T00:42:58.174Z,24.5
2017-04-12T00:43:57.297Z,24.5
2017-04-12T00:44:58.334Z,24.5
2017-04-12T00:45:57.259Z,24.5
2017-04-12T00:46:57.270Z,24.5
2017-04-12T00:47:58.380Z,24.5
2017-04-12T00:48:58.481Z,24.5
2017-04-12T00:49:57.503Z,24.5
2017-04-12T00:50:57.427Z,24.5
2017-04-12T00:51:57.589Z,24.5
2017-04-12T00:52:57.540Z,24.5
2017-04-12T00:53:58.679Z,24.5
2017-04-12T00:54:58.811Z,24.5
2017-04-12T00:55:58.779Z,24.5
2017-04-12T00:56:58.749Z,24.5
2017-04-12T00:57:57.716Z,24.5
2017-04-12T00:58:57.810Z,24.5
2017-04-12T00:59:57.798Z,24.5
2017-04-12T01:00:59.041Z,24.5
2017-04-12T01:01:57.931Z,24.5
2017-04-12T01:02:59.123Z,24.5
2017-04-12T01:03:59.189Z,24.5
2017-04-12T01:04:58.176Z,24.6
2017-04-12T01:05:59.167Z,24.6
2017-04-12T01:06:59.308Z,24.5
2017-04-12T01:07:59.251Z,24.6
2017-04-12T01:08:59.324Z,24.5
2017-04-12T01:09:59.348Z,24.6
2017-04-12T01:10:59.367Z,24.5
2017-04-12T01:11:58.275Z,24.5
2017-04-12T01:12:58.407Z,24.6
2017-04-12T01:13:58.353Z,24.6
2017-04-12T01:14:59.580Z,24.5
2017-04-12T01:15:58.560Z,24.6
2017-04-12T01:16:58.694Z,24.5
2017-04-12T01:17:59.842Z,24.6
2017-04-12T01:18:59.843Z,24.6
2017-04-12T01:19:59.937Z,24.5
2017-04-12T01:20:59.476Z,24.6
2017-04-12T01:21:58.988Z,24.6
2017-04-12T01:22:59.953Z,24.6
2017-04-12T01:24:00.190Z,24.6
2017-04-12T01:24:59.045Z,24.6
2017-04-12T01:26:00.110Z,24.6
2017-04-12T01:27:00.089Z,24.6
2017-04-12T01:27:59.203Z,24.6
2017-04-12T01:29:00.244Z,24.6
2017-04-12T01:29:59.258Z,24.6
2017-04-12T01:30:59.392Z,24.6
2017-04-12T01:32:00.455Z,24.6
2017-04-12T01:32:59.530Z,24.6
2017-04-12T01:34:00.649Z,24.6
2017-04-12T01:35:00.597Z,24.6
2017-04-12T01:36:00.291Z,24.6
2017-04-12T01:36:59.661Z,24.6
2017-04-12T01:37:59.832Z,24.6
2017-04-12T01:39:00.842Z,24.6
2017-04-12T01:39:59.773Z,24.6
2017-04-12T01:40:59.905Z,24.6
2017-04-12T01:41:59.856Z,24.6
2017-04-12T01:43:01.029Z,24.6
2017-04-12T01:44:00.966Z,24.6
2017-04-12T01:45:01.059Z,24.6
2017-04-12T01:46:00.120Z,24.6
2017-04-12T01:47:01.127Z,24.6
2017-04-12T01:48:00.226Z,24.6
2017-04-12T01:49:01.185Z,24.6
2017-04-12T01:50:00.289Z,24.6
2017-04-12T01:51:00.370Z,24.6
2017-04-12T01:52:01.474Z,24.6
2017-04-12T01:53:00.444Z,24.6
2017-04-12T01:54:00.426Z,24.6
2017-04-12T01:55:01.473Z,24.6
2017-04-12T01:56:01.599Z,24.6
2017-04-12T01:57:00.619Z,24.6
2017-04-12T01:58:01.609Z,24.6
2017-04-12T01:59:01.777Z,24.6
2017-04-12T02:00:01.736Z,24.6
2017-04-12T02:01:01.885Z,24.6
2017-04-12T02:02:00.770Z,24.6
2017-04-12T02:03:01.970Z,24.6
2017-04-12T02:04:00.963Z,24.7
2017-04-12T02:05:02.016Z,24.6
2017-04-12T02:06:02.075Z,24.7
2017-04-12T02:07:01.179Z,24.6
2017-04-12T02:08:01.257Z,24.7
2017-04-12T02:09:01.195Z,24.6
2017-04-12T02:10:01.329Z,24.6
2017-04-12T02:11:02.331Z,24.6
2017-04-12T02:12:01.447Z,24.6
2017-04-12T02:13:01.368Z,24.6
2017-04-12T02:14:01.439Z,24.6
2017-04-12T02:15:02.601Z,24.6
2017-04-12T02:16:02.560Z,24.6
2017-04-12T02:17:02.573Z,24.6
2017-04-12T02:18:02.742Z,24.6
2017-04-12T02:19:01.711Z,24.6
2017-04-12T02:20:02.732Z,24.6
2017-04-12T02:21:02.789Z,24.6
2017-04-12T02:22:02.841Z,24.6
2017-04-12T02:23:01.831Z,24.7
2017-04-12T02:24:01.863Z,24.7
2017-04-12T02:25:02.046Z,24.7
2017-04-12T02:26:02.066Z,24.7
2017-04-12T02:27:03.136Z,24.7
2017-04-12T02:28:03.208Z,24.7
2017-04-12T02:29:03.241Z,24.7
2017-04-12T02:30:02.201Z,24.7
2017-04-12T02:31:02.243Z,24.7
2017-04-12T02:32:02.278Z,24.7
2017-04-12T02:33:02.334Z,24.7
2017-04-12T02:34:02.381Z,24.7
2017-04-12T02:35:03.467Z,24.7
2017-04-12T02:36:02.456Z,24.7
2017-04-12T02:37:02.397Z,24.7
2017-04-12T02:38:03.550Z,24.7
2017-04-12T02:39:02.510Z,24.7
2017-04-12T02:40:03.708Z,24.7
2017-04-12T02:41:02.574Z,24.7
2017-04-12T02:42:02.737Z,24.7
2017-04-12T02:43:03.767Z,24.7
2017-04-12T02:44:02.858Z,24.7
2017-04-12T02:45:03.925Z,24.7
2017-04-12T02:46:03.951Z,24.7
2017-04-12T02:47:03.920Z,24.7
2017-04-12T02:48:02.845Z,24.7
2017-04-12T02:49:04.087Z,24.7
2017-04-12T02:50:04.147Z,24.7
2017-04-12T02:51:04.156Z,24.7
2017-04-12T02:52:04.181Z,24.7
2017-04-12T02:53:03.191Z,24.7
2017-04-12T02:54:03.241Z,24.7
2017-04-12T02:55:03.395Z,24.7
2017-04-12T02:56:04.585Z,24.7
2017-04-12T02:57:04.486Z,24.7
2017-04-12T02:58:03.427Z,24.7
2017-04-12T02:59:03.473Z,24.7
2017-04-12T03:00:04.589Z,24.7
2017-04-12T03:01:04.710Z,24.7
2017-04-12T03:02:04.811Z,24.7
2017-04-12T03:03:03.772Z,24.8
2017-04-12T03:04:04.840Z,24.7
2017-04-12T03:05:04.929Z,24.7
2017-04-12T03:06:03.844Z,24.8
2017-04-12T03:07:03.916Z,24.8
2017-04-12T03:08:03.974Z,24.8
2017-04-12T03:09:05.195Z,24.8
2017-04-12T03:10:05.233Z,24.8
2017-04-12T03:11:04.244Z,24.8
2017-04-12T03:12:05.293Z,24.8
2017-04-12T03:13:04.368Z,24.8
2017-04-12T03:14:04.275Z,24.7
2017-04-12T03:15:05.337Z,24.7
2017-04-12T03:16:05.433Z,24.7
2017-04-12T03:17:05.515Z,24.7
2017-04-12T03:18:05.597Z,24.7
2017-04-12T03:19:04.528Z,24.7
2017-04-12T03:20:04.617Z,24.7
2017-04-12T03:21:04.647Z,24.7
2017-04-12T03:22:05.317Z,24.7
2017-04-12T03:23:04.867Z,24.7
2017-04-12T03:24:05.884Z,24.7
2017-04-12T03:25:06.922Z,24.7
2017-04-12T03:26:05.970Z,24.7
2017-04-12T03:27:05.097Z,24.7
2017-04-12T03:28:06.121Z,24.7
2017-04-12T03:29:05.237Z,24.7
2017-04-12T03:30:06.313Z,24.7
2017-04-12T03:31:06.302Z,24.7
2017-04-12T03:32:05.251Z,24.7
2017-04-12T03:33:05.393Z,24.7
2017-04-12T03:34:05.465Z,24.7
2017-04-12T03:35:06.651Z,24.7
2017-04-12T03:36:06.580Z,24.7
2017-04-12T03:37:06.630Z,24.7
2017-04-12T03:38:06.799Z,24.7
2017-04-12T03:39:05.760Z,24.7
2017-04-12T03:40:05.717Z,24.7
2017-04-12T03:41:07.087Z,24.7
2017-04-12T03:42:05.847Z,24.7
2017-04-12T03:43:07.039Z,24.7
2017-04-12T03:44:05.928Z,24.7
2017-04-12T03:45:07.028Z,24.7
2017-04-12T03:46:06.067Z,24.7
2017-04-12T03:47:07.494Z,24.7
2017-04-12T03:48:07.327Z,24.7
2017-04-12T03:49:07.362Z,24.7
2017-04-12T03:50:07.422Z,24.7
2017-04-12T03:51:06.353Z,24.7
2017-04-12T03:52:07.551Z,24.7
2017-04-12T03:53:06.476Z,24.7
2017-04-12T03:54:06.568Z,24.7
2017-04-12T03:55:06.592Z,24.7
2017-04-12T03:56:06.728Z,24.7
2017-04-12T03:57:06.678Z,24.7
2017-04-12T03:58:06.722Z,24.7
2017-04-12T03:59:06.906Z,24.7
2017-04-12T04:00:07.947Z,24.7
2017-04-12T04:01:06.957Z,24.7
2017-04-12T04:02:07.004Z,24.7
2017-04-12T04:03:08.024Z,24.7
2017-04-12T04:04:08.022Z,24.7
2017-04-12T04:05:07.096Z,24.7
2017-04-12T04:06:07.012Z,24.8
2017-04-12T04:07:07.122Z,24.7
2017-04-12T04:08:07.045Z,24.8
2017-04-12T04:09:08.221Z,24.8
2017-04-12T04:10:08.317Z,24.8
2017-04-12T04:11:08.265Z,24.8
2017-04-12T04:12:07.244Z,24.8
2017-04-12T04:13:08.452Z,24.8
2017-04-12T04:14:07.513Z,24.8
2017-04-12T04:15:07.490Z,24.8
2017-04-12T04:16:08.700Z,24.8
2017-04-12T04:17:08.640Z,24.8
2017-04-12T04:18:08.725Z,24.7
2017-04-12T04:19:08.849Z,24.8
2017-04-12T04:20:08.787Z,24.7
2017-04-12T04:21:08.972Z,24.8
2017-04-12T04:22:10.212Z,24.8
2017-04-12T04:23:07.861Z,24.8
2017-04-12T04:24:08.030Z,24.8
2017-04-12T04:25:08.006Z,24.8
2017-04-12T04:26:09.071Z,24.8
2017-04-12T04:27:08.072Z,24.8
2017-04-12T04:28:08.208Z,24.8
2017-04-12T04:29:09.271Z,24.8
2017-04-12T04:30:09.439Z,24.8
2017-04-12T04:31:09.375Z,24.8
2017-04-12T04:32:08.381Z,24.8
2017-04-12T04:33:08.457Z,24.8
2017-04-12T04:34:08.534Z,24.8
2017-04-12T04:35:08.489Z,24.8
2017-04-12T04:36:09.664Z,24.8
2017-04-12T04:37:08.651Z,24.8
2017-04-12T04:38:09.605Z,24.8
2017-04-12T04:39:08.709Z,24.8
2017-04-12T04:40:08.767Z,24.8
2017-04-12T04:41:08.783Z,24.8
2017-04-12T04:42:08.804Z,24.8
2017-04-12T04:43:09.859Z,24.8
2017-04-12T04:44:08.862Z,24.8
2017-04-12T04:45:10.057Z,24.8
2017-04-12T04:46:10.090Z,24.8
2017-04-12T04:47:10.195Z,24.8
2017-04-12T04:48:10.300Z,24.8
2017-04-12T04:49:10.281Z,24.8
2017-04-12T04:50:10.342Z,24.8
2017-04-12T04:51:09.246Z,24.8
2017-04-12T04:52:10.438Z,24.8
2017-04-12T04:53:10.523Z,24.8
2017-04-12T04:54:09.505Z,24.8
2017-04-12T04:55:11.124Z,24.8
2017-04-12T04:56:10.639Z,24.8
2017-04-12T04:57:10.644Z,24.8
2017-04-12T04:58:09.604Z,24.8
2017-04-12T04:59:10.779Z,24.8
2017-04-12T05:00:10.737Z,24.8
2017-04-12T05:01:10.752Z,24.8
2017-04-12T05:02:09.674Z,24.8
2017-04-12T05:03:10.780Z,24.8
2017-04-12T05:04:10.862Z,24.8
2017-04-12T05:05:09.883Z,24.8
2017-04-12T05:06:09.940Z,24.8
2017-04-12T05:07:09.929Z,24.8
2017-04-12T05:08:10.054Z,24.7
2017-04-12T05:09:11.513Z,24.7
2017-04-12T05:10:11.264Z,24.7
2017-04-12T05:11:10.242Z,24.7
2017-04-12T05:12:10.130Z,24.7
2017-04-12T05:13:11.245Z,24.7
2017-04-12T05:14:10.404Z,24.7
2017-04-12T05:15:10.494Z,24.7
2017-04-12T05:16:11.474Z,24.7
2017-04-12T05:17:10.451Z,24.7
2017-04-12T05:18:11.520Z,24.7
2017-04-12T05:19:10.495Z,24.7
2017-04-12T05:20:10.577Z,24.7
2017-04-12T05:21:10.694Z,24.7
2017-04-12T05:22:10.689Z,24.7
2017-04-12T05:23:10.880Z,24.7
2017-04-12T05:24:11.870Z,24.7
2017-04-12T05:25:11.843Z,24.7
2017-04-12T05:26:10.876Z,24.7
2017-04-12T05:27:10.834Z,24.7
2017-04-12T05:28:11.024Z,24.7
2017-04-12T05:29:11.170Z,24.7
2017-04-12T05:30:11.164Z,24.7
2017-04-12T05:31:12.232Z,24.7
2017-04-12T05:32:12.335Z,24.7
2017-04-12T05:33:12.290Z,24.7
2017-04-12T05:34:11.357Z,24.7
2017-04-12T05:35:11.338Z,24.7
2017-04-12T05:36:11.462Z,24.7
2017-04-12T05:37:11.480Z,24.7
2017-04-12T05:38:12.491Z,24.7
2017-04-12T05:39:12.608Z,24.7
2017-04-12T05:40:12.958Z,24.7
2017-04-12T05:41:12.716Z,24.7
2017-04-12T05:42:11.693Z,24.7
2017-04-12T05:43:12.824Z,24.7
2017-04-12T05:44:12.911Z,24.7
2017-04-12T05:45:11.863Z,24.6
2017-04-12T05:46:11.881Z,24.6
2017-04-12T05:47:13.135Z,24.6
2017-04-12T05:48:12.038Z,24.6
2017-04-12T05:49:12.166Z,24.6
2017-04-12T05:50:12.152Z,24.6
2017-04-12T05:51:13.212Z,24.6
2017-04-12T05:52:13.342Z,24.6
2017-04-12T05:53:12.445Z,24.5
2017-04-12T05:54:14.068Z,24.6
2017-04-12T05:55:12.453Z,24.6
2017-04-12T05:56:13.486Z,24.7
2017-04-12T05:57:12.484Z,24.9
2017-04-12T05:58:13.514Z,25
2017-04-12T05:59:14.048Z,25.1
2017-04-12T06:00:13.676Z,25.2
2017-04-12T06:01:13.712Z,25.4
2017-04-12T06:02:12.602Z,25.6
2017-04-12T06:03:13.757Z,25.7
2017-04-12T06:04:14.021Z,25.8
2017-04-12T06:05:13.791Z,25.9
2017-04-12T06:06:12.827Z,26
2017-04-12T06:07:12.972Z,26
2017-04-12T06:08:12.916Z,26.1
2017-04-12T06:09:14.143Z,26.1
2017-04-12T06:10:13.174Z,26.2
2017-04-12T06:11:14.171Z,26.2
2017-04-12T06:12:13.122Z,26.3
2017-04-12T06:13:13.288Z,26.3
2017-04-12T06:14:13.222Z,26.3
2017-04-12T06:15:13.385Z,26.3
2017-04-12T06:16:14.478Z,26.3
2017-04-12T06:17:14.489Z,26.3
2017-04-12T06:18:14.537Z,26.3
2017-04-12T06:19:14.582Z,26.3
2017-04-12T06:20:13.752Z,26.2
2017-04-12T06:21:14.422Z,26.2
2017-04-12T06:22:14.682Z,26.2
2017-04-12T06:23:15.505Z,26.1
2017-04-12T06:24:13.772Z,26.1
2017-04-12T06:25:17.676Z,26.1
2017-04-12T06:26:14.960Z,26.1
2017-04-12T06:27:13.978Z,26
2017-04-12T06:28:16.401Z,26
2017-04-12T06:29:15.390Z,26
2017-04-12T06:30:16.047Z,26
2017-04-12T06:31:16.127Z,25.9
2017-04-12T06:32:16.303Z,25.9
2017-04-12T06:33:15.907Z,25.9
2017-04-12T06:34:15.088Z,25.9
2017-04-12T06:35:14.329Z,25.9
2017-04-12T06:36:15.535Z,25.9
2017-04-12T06:37:14.497Z,25.9
2017-04-12T06:38:18.818Z,26
2017-04-12T06:39:15.903Z,26.1
2017-04-12T06:40:16.197Z,26.2
2017-04-12T06:41:15.769Z,26.3
2017-04-12T06:42:14.753Z,26.3
2017-04-12T06:43:16.612Z,26.4
2017-04-12T06:44:17.169Z,26.4
2017-04-12T06:45:16.034Z,26.4
2017-04-12T06:46:14.951Z,26.4
2017-04-12T06:47:15.026Z,26.3
2017-04-12T06:48:14.955Z,26.4
2017-04-12T06:49:16.170Z,26.4
2017-04-12T06:50:18.986Z,26.5
2017-04-12T06:51:21.350Z,26.5
2017-04-12T06:52:16.137Z,26.5
2017-04-12T06:53:17.294Z,26.6
2017-04-12T06:54:15.366Z,26.6
2017-04-12T06:55:15.973Z,26.6
2017-04-12T06:56:16.397Z,26.7
2017-04-12T06:57:15.845Z,26.7
2017-04-12T06:58:15.353Z,26.8
2017-04-12T06:59:17.348Z,26.8
2017-04-12T07:00:15.541Z,26.8
2017-04-12T07:01:15.562Z,26.9
2017-04-12T07:02:16.205Z,27
2017-04-12T07:03:21.650Z,27
2017-04-12T07:04:16.697Z,27
2017-04-12T07:05:16.798Z,27.1
2017-04-12T07:06:16.727Z,27.1
2017-04-12T07:07:16.823Z,27.1
2017-04-12T07:08:17.937Z,27.2
2017-04-12T07:09:16.884Z,27.2
2017-04-12T07:10:16.795Z,27.2
2017-04-12T07:11:20.788Z,27.3
2017-04-12T07:12:17.497Z,27.3
2017-04-12T07:13:18.300Z,27.3
2017-04-12T07:14:17.055Z,27.3
2017-04-12T07:15:17.097Z,27.3
2017-04-12T07:16:16.806Z,27.3
2017-04-12T07:17:16.152Z,27.3
2017-04-12T07:18:17.290Z,27.3
2017-04-12T07:19:19.345Z,27.4
2017-04-12T07:20:16.367Z,27.4
2017-04-12T07:21:16.619Z,27.4
2017-04-12T07:22:16.705Z,27.5
2017-04-12T07:23:17.109Z,27.5
2017-04-12T07:24:20.049Z,27.5
2017-04-12T07:25:18.914Z,27.4
2017-04-12T07:26:17.575Z,27.4
2017-04-12T07:27:16.639Z,27.3
2017-04-12T07:28:18.394Z,27.2
2017-04-12T07:29:17.798Z,27
2017-04-12T07:30:17.844Z,26.7
2017-04-12T07:31:16.720Z,26.5
2017-04-12T07:32:17.925Z,26.3
2017-04-12T07:33:17.945Z,26.3
2017-04-12T07:34:18.761Z,26.2
2017-04-12T07:35:18.057Z,26.1
2017-04-12T07:36:18.153Z,26
2017-04-12T07:37:19.285Z,25.9
2017-04-12T07:38:18.913Z,25.8
2017-04-12T07:39:18.284Z,25.8
2017-04-12T07:40:18.287Z,25.8
2017-04-12T07:41:18.948Z,25.8
2017-04-12T07:42:18.650Z,25.8
2017-04-12T07:43:18.422Z,25.8
2017-04-12T07:44:17.567Z,25.8
2017-04-12T07:45:23.848Z,25.8
2017-04-12T07:46:18.608Z,25.8
2017-04-12T07:47:19.196Z,25.8
2017-04-12T07:48:17.628Z,25.9
2017-04-12T07:49:18.679Z,26
2017-04-12T07:50:19.007Z,26
2017-04-12T07:51:18.369Z,26
2017-04-12T07:52:17.717Z,26
2017-04-12T07:53:17.698Z,26.1
2017-04-12T07:54:18.880Z,26.1
2017-04-12T07:55:18.919Z,26.1
2017-04-12T07:56:19.124Z,26.1
2017-04-12T07:57:17.932Z,26.1
2017-04-12T07:58:20.623Z,26.1
2017-04-12T07:59:18.054Z,26.2
2017-04-12T08:00:18.616Z,26.2
2017-04-12T08:01:20.550Z,26.2
2017-04-12T08:02:19.316Z,26.3
2017-04-12T08:03:18.280Z,26.3
2017-04-12T08:04:19.255Z,26.3
2017-04-12T08:05:19.304Z,26.3
2017-04-12T08:06:20.390Z,26.3
2017-04-12T08:07:18.379Z,26.2
2017-04-12T08:08:18.564Z,26.2
2017-04-12T08:09:19.560Z,26.2
2017-04-12T08:10:18.634Z,26.2
2017-04-12T08:11:19.726Z,26.3
2017-04-12T08:12:18.731Z,26.3
2017-04-12T08:13:20.420Z,26.3
2017-04-12T08:14:20.021Z,26.3
2017-04-12T08:15:18.821Z,26.3
2017-04-12T08:16:20.074Z,26.4
2017-04-12T08:17:29.104Z,26.4
2017-04-12T08:18:32.853Z,26.4
2017-04-12T08:20:27.546Z,26.5
2017-04-12T08:22:32.545Z,26.5
2017-04-12T08:23:21.212Z,26.5
2017-04-12T08:24:21.995Z,26.6
2017-04-12T08:25:24.973Z,26.6
2017-04-12T08:26:22.929Z,26.6
2017-04-12T08:27:21.713Z,26.6
2017-04-12T08:28:22.249Z,26.6
2017-04-12T08:29:21.573Z,26.6
2017-04-12T08:30:21.261Z,26.6
2017-04-12T08:31:21.313Z,26.7
2017-04-12T08:32:22.360Z,26.7
2017-04-12T08:33:20.609Z,26.7
2017-04-12T08:34:22.257Z,26.7
2017-04-12T08:35:25.198Z,26.7
2017-04-12T08:36:22.862Z,26.6
2017-04-12T08:37:20.852Z,26.6
2017-04-12T08:38:20.582Z,26.6
2017-04-12T08:39:21.326Z,26.7
2017-04-12T08:40:20.283Z,26.7
2017-04-12T08:41:22.525Z,26.8
2017-04-12T08:42:20.437Z,26.8
2017-04-12T08:43:23.380Z,26.8
2017-04-12T08:44:22.245Z,26.8
2017-04-12T08:45:23.035Z,26.8
2017-04-12T08:46:21.283Z,26.8
2017-04-12T08:47:20.975Z,26.8
2017-04-12T08:48:24.757Z,26.8
2017-04-12T08:49:21.905Z,26.8
2017-04-12T08:50:25.352Z,26.9
2017-04-12T08:51:21.777Z,26.9
2017-04-12T08:52:25.751Z,26.9
2017-04-12T08:53:27.351Z,26.9
2017-04-12T08:54:27.105Z,26.9
2017-04-12T08:55:25.501Z,26.9
2017-04-12T08:56:23.137Z,27
2017-04-12T08:57:27.239Z,27
2017-04-12T08:59:24.855Z,27
2017-04-12T09:00:24.955Z,26.9
2017-04-12T09:01:29.314Z,27
2017-04-12T09:02:26.977Z,27
2017-04-12T09:03:25.320Z,27
2017-04-12T09:04:23.380Z,26.9
2017-04-12T09:05:22.688Z,26.9
2017-04-12T09:06:23.787Z,26.9
2017-04-12T09:07:22.160Z,26.9
2017-04-12T09:08:22.692Z,26.9
2017-04-12T09:09:21.702Z,26.9
2017-04-12T09:10:26.533Z,26.9
2017-04-12T09:11:23.808Z,26.9
2017-04-12T09:12:25.084Z,26.9
2017-04-12T09:13:22.487Z,26.9
2017-04-12T09:14:23.724Z,26.9
2017-04-12T09:15:21.937Z,26.9
2017-04-12T09:16:23.720Z,26.8
2017-04-12T09:17:24.304Z,26.8
2017-04-12T09:18:22.540Z,26.8
2017-04-12T09:19:24.275Z,26.8
2017-04-12T09:20:27.237Z,26.8
2017-04-12T09:21:22.307Z,26.8
2017-04-12T09:22:22.787Z,26.8
2017-04-12T09:23:24.811Z,26.8
2017-04-12T09:24:23.262Z,26.7
2017-04-12T09:25:23.371Z,26.6
2017-04-12T09:26:23.544Z,26.6
2017-04-12T09:27:25.257Z,26.5
2017-04-12T09:28:27.170Z,26.5
2017-04-12T09:29:24.361Z,26.6
2017-04-12T09:30:22.730Z,26.6
2017-04-12T09:31:24.692Z,26.6
2017-04-12T09:32:25.650Z,26.6
2017-04-12T09:33:25.178Z,26.6
2017-04-12T09:34:24.128Z,26.5
2017-04-12T09:35:29.439Z,26.5
2017-04-12T09:36:28.799Z,26.5
2017-04-12T09:37:23.179Z,26.5
2017-04-12T09:38:23.129Z,26.5
2017-04-12T09:39:24.433Z,26.5
2017-04-12T09:40:24.014Z,26.6
2017-04-12T09:41:24.423Z,26.6
2017-04-12T09:42:25.134Z,26.6
2017-04-12T09:43:27.683Z,26.7
2017-04-12T09:44:23.491Z,26.7
2017-04-12T09:45:24.494Z,26.7
2017-04-12T09:46:25.472Z,26.6
2017-04-12T09:47:23.803Z,26.6
2017-04-12T09:48:25.867Z,26.6
2017-04-12T09:49:28.588Z,26.6
2017-04-12T09:50:25.601Z,26.5
2017-04-12T09:51:28.313Z,26.5
2017-04-12T09:52:26.731Z,26.6
2017-04-12T09:53:24.415Z,26.6
2017-04-12T09:54:25.623Z,26.6
2017-04-12T09:55:26.681Z,26.6
2017-04-12T09:56:27.995Z,26.6
2017-04-12T09:57:34.578Z,26.6
2017-04-12T09:58:27.919Z,26.6
2017-04-12T09:59:26.962Z,26.7
2017-04-12T10:00:30.917Z,26.7
2017-04-12T10:01:26.582Z,26.7
2017-04-12T10:02:28.939Z,26.7
2017-04-12T10:03:25.817Z,26.7
2017-04-12T10:04:26.376Z,26.7
2017-04-12T10:05:25.272Z,26.8
2017-04-12T10:06:27.209Z,26.8
2017-04-12T10:07:25.811Z,26.7
2017-04-12T10:08:27.608Z,26.6
2017-04-12T10:09:28.286Z,26.6
2017-04-12T10:10:41.227Z,26.6
2017-04-12T10:11:30.439Z,26.6
2017-04-12T10:12:31.631Z,26.6
2017-04-12T10:13:27.657Z,26.6
2017-04-12T10:14:27.478Z,26.6
2017-04-12T10:15:29.678Z,26.6
2017-04-12T10:16:29.813Z,26.6
2017-04-12T10:17:28.016Z,26.6
2017-04-12T10:18:27.272Z,26.6
2017-04-12T10:19:26.532Z,26.6
2017-04-12T10:20:27.171Z,26.6
2017-04-12T10:21:27.833Z,26.6
2017-04-12T10:22:29.865Z,26.6
2017-04-12T10:23:29.802Z,26.6
2017-04-12T10:24:28.393Z,26.5
2017-04-12T10:25:28.596Z,26.6
2017-04-12T10:26:25.740Z,26.5
2017-04-12T10:27:28.887Z,26.5
2017-04-12T10:28:27.480Z,26.5
2017-04-12T10:29:29.481Z,26.4
2017-04-12T10:30:29.366Z,26.2
2017-04-12T10:31:28.259Z,26
2017-04-12T10:32:30.794Z,25.9
2017-04-12T10:33:26.797Z,25.9
2017-04-12T10:34:28.915Z,26
2017-04-12T10:35:26.442Z,26
2017-04-12T10:36:26.970Z,26.1
2017-04-12T10:37:27.460Z,26.1
2017-04-12T10:38:28.434Z,26.2
2017-04-12T10:39:29.630Z,26.2
2017-04-12T10:40:28.506Z,26.2
2017-04-12T10:41:26.507Z,26.2
2017-04-12T10:42:26.534Z,26.2
2017-04-12T10:43:36.703Z,26.2
2017-04-12T10:44:27.391Z,26.2
2017-04-12T10:45:27.919Z,26.2
2017-04-12T10:46:30.068Z,26.3
2017-04-12T10:47:28.172Z,26.2
2017-04-12T10:48:27.531Z,26.2
2017-04-12T10:49:27.730Z,26
2017-04-12T10:50:29.636Z,25.9
2017-04-12T10:51:27.951Z,25.8
2017-04-12T10:52:28.919Z,25.8
2017-04-12T10:53:31.081Z,25.7
2017-04-12T10:54:29.987Z,25.6
2017-04-12T10:55:29.985Z,25.5
2017-04-12T10:56:27.073Z,25.3
2017-04-12T10:57:28.549Z,25.2
2017-04-12T10:58:27.905Z,25.1
2017-04-12T10:59:29.820Z,25
2017-04-12T11:00:28.557Z,24.9
2017-04-12T11:01:28.086Z,24.9
2017-04-12T11:02:28.586Z,24.9
2017-04-12T11:03:29.214Z,24.9
2017-04-12T11:04:27.480Z,24.9
2017-04-12T11:05:29.159Z,24.8
2017-04-12T11:06:28.711Z,24.8
2017-04-12T11:07:29.564Z,24.7
2017-04-12T11:08:29.828Z,24.7
2017-04-12T11:09:29.189Z,24.6
2017-04-12T11:10:28.757Z,24.6
2017-04-12T11:11:28.584Z,24.6
2017-04-12T11:12:30.337Z,24.6
2017-04-12T11:13:28.751Z,24.5
2017-04-12T11:14:30.319Z,24.5
2017-04-12T11:15:29.264Z,24.4
2017-04-12T11:16:29.689Z,24.4
2017-04-12T11:17:30.603Z,24.3
2017-04-12T11:18:28.290Z,24.2
2017-04-12T11:19:29.417Z,24
2017-04-12T11:20:28.418Z,24.1
2017-04-12T11:21:31.546Z,24.1
2017-04-12T11:22:29.749Z,24.1
2017-04-12T11:23:28.485Z,24.2
2017-04-12T11:24:28.680Z,24.2
2017-04-12T11:25:31.102Z,24.2
2017-04-12T11:26:30.767Z,24.2
2017-04-12T11:27:29.942Z,24.1
2017-04-12T11:28:28.851Z,24.1
2017-04-12T11:29:29.554Z,24.1
2017-04-12T11:30:30.053Z,24.2
2017-04-12T11:31:30.448Z,24.2
2017-04-12T11:32:30.244Z,24.3
2017-04-12T11:33:29.833Z,24.4
2017-04-12T11:34:30.424Z,24.5
2017-04-12T11:35:30.315Z,24.6
2017-04-12T11:36:29.278Z,24.6
2017-04-12T11:37:29.399Z,24.7
2017-04-12T11:38:29.472Z,24.7
2017-04-12T11:39:30.698Z,24.8
2017-04-12T11:40:30.279Z,24.8
2017-04-12T11:41:31.250Z,24.8
2017-04-12T11:42:32.782Z,24.9
2017-04-12T11:43:30.920Z,25
2017-04-12T11:44:34.785Z,25
2017-04-12T11:45:39.857Z,25
2017-04-12T11:46:30.912Z,24.9
2017-04-12T11:47:41.820Z,24.9
2017-04-12T11:48:31.754Z,24.9
2017-04-12T11:49:32.919Z,24.9
2017-04-12T11:50:34.154Z,25
2017-04-12T11:51:31.277Z,25
2017-04-12T11:52:33.052Z,25
2017-04-12T11:53:40.352Z,25
2017-04-12T11:54:31.537Z,25
2017-04-12T11:55:45.335Z,24.9
2017-04-12T11:56:31.360Z,24.9
2017-04-12T11:57:40.984Z,24.9
2017-04-12T11:58:31.418Z,24.9
2017-04-12T11:59:30.373Z,25
2017-04-12T12:00:31.518Z,25
2017-04-12T12:01:31.117Z,25.1
2017-04-12T12:02:41.831Z,25.1
2017-04-12T12:03:31.783Z,25.2
2017-04-12T12:04:35.586Z,25.2
2017-04-12T12:05:32.728Z,25.2
2017-04-12T12:07:33.402Z,25.3
2017-04-12T12:08:37.431Z,25.2
2017-04-12T12:09:31.897Z,25.3
2017-04-12T12:10:44.246Z,25.3
2017-04-12T12:11:33.933Z,25.3
2017-04-12T12:12:41.993Z,25.3
2017-04-12T12:13:32.480Z,25.3
2017-04-12T12:14:33.938Z,25.3
2017-04-12T12:15:34.711Z,25.3
2017-04-12T12:16:34.777Z,25.4
2017-04-12T12:17:35.819Z,25.4
2017-04-12T12:18:35.381Z,25.4
2017-04-12T12:19:34.261Z,25.3
2017-04-12T12:20:34.016Z,25.3
2017-04-12T12:21:35.528Z,25.4
2017-04-12T12:22:33.444Z,25.4
2017-04-12T12:23:36.437Z,25.4
2017-04-12T12:24:35.390Z,25.4
2017-04-12T12:25:38.977Z,25.4
2017-04-12T12:26:38.595Z,25.4
2017-04-12T12:27:38.725Z,25.4
2017-04-12T12:28:39.980Z,25.5
2017-04-12T12:29:37.771Z,25.5
2017-04-12T12:30:35.690Z,25.5
2017-04-12T12:31:39.232Z,25.5
2017-04-12T12:32:35.402Z,25.5
2017-04-12T12:33:38.638Z,25.5
2017-04-12T12:34:35.173Z,25.5
2017-04-12T12:35:37.125Z,25.5
2017-04-12T12:36:34.362Z,25.5
2017-04-12T12:37:34.906Z,25.5
2017-04-12T12:38:33.467Z,25.5
2017-04-12T12:39:33.874Z,25.5
2017-04-12T12:40:35.066Z,25.5
2017-04-12T12:41:33.679Z,25.5
2017-04-12T12:42:35.016Z,25.4
2017-04-12T12:43:34.161Z,25.4
2017-04-12T12:44:35.202Z,25.4
2017-04-12T12:45:35.424Z,25.4
2017-04-12T12:46:34.239Z,25.4
2017-04-12T12:47:36.448Z,25.4
2017-04-12T12:48:34.700Z,25.4
2017-04-12T12:49:35.041Z,25.3
2017-04-12T12:50:34.203Z,25.3
2017-04-12T12:51:33.486Z,25.3
2017-04-12T12:52:33.515Z,25.3
2017-04-12T12:53:33.544Z,25.4
2017-04-12T12:54:33.594Z,25.4
2017-04-12T12:55:33.651Z,25.4
2017-04-12T12:56:34.843Z,25.4
2017-04-12T12:57:34.186Z,25.4
2017-04-12T12:58:35.328Z,25.5
2017-04-12T12:59:36.876Z,25.5
2017-04-12T13:00:36.373Z,25.5
2017-04-12T13:01:33.917Z,25.5
2017-04-12T13:02:35.736Z,25.5
2017-04-12T13:03:35.163Z,25.5
2017-04-12T13:04:35.322Z,25.4
2017-04-12T13:05:35.876Z,25.5
2017-04-12T13:06:35.459Z,25.5
2017-04-12T13:07:35.545Z,25.5
2017-04-12T13:08:38.442Z,25.5
2017-04-12T13:09:35.886Z,25.5
2017-04-12T13:10:37.924Z,25.5
2017-04-12T13:11:34.468Z,25.6
2017-04-12T13:12:34.976Z,25.6
2017-04-12T13:13:38.648Z,25.6
2017-04-12T13:14:35.515Z,25.6
2017-04-12T13:15:35.064Z,25.6
2017-04-12T13:16:34.499Z,25.6
2017-04-12T13:17:34.651Z,25.7
2017-04-12T13:18:35.681Z,25.7
2017-04-12T13:19:35.597Z,25.7
2017-04-12T13:20:34.539Z,25.7
2017-04-12T13:21:35.310Z,25.7
2017-04-12T13:22:35.686Z,25.7
2017-04-12T13:23:35.794Z,25.8
2017-04-12T13:24:34.741Z,25.8
2017-04-12T13:25:36.045Z,25.8
2017-04-12T13:26:35.889Z,25.7